Aérodrome :
LOGIN :

S'inscrire | Disclaimer

   EN    FR    IT 

 










Légende :    VFR   VFR Marginal   IFR   IFR Intensif   IFR Très Intensif
Visi : 
Plafond : 
>= 8 km
>= 3000ft
5 à 8 km
1000 à 3000 ft
1500m à 5 km
500 à 1000 ft
800 à 1500m
200 à 500 ft
< 800m
< 200 ft
Symboles :   Orages  Brouillard  Fortes neiges  Fortes précipitations  Vent > 20 kt
SIGMETs :   Divers  Orages  Givrage  Turbulence  Onde Orograph.  Cendres Volcan.






- Altitude de l'aérodrome : 1910 ft
- Code IATA : RDZ


LFCR - Rodez

DERNIER METAR :
  • 140100Z AUTO 13010KT 9999 FEW047 BKN056 BKN070 04/01 Q1001 BECMG 4500 -RA OVC006

METARs EXPIRÉS :
  • 140030Z AUTO 14010KT 9999 FEW044 SCT058 BKN068 04/02 Q1002 BECMG 4500 -RA OVC006
  • 140000Z AUTO 14010KT 9999 FEW044 SCT150 OVC220 03/01 Q1002 NOSIG
  • 132330Z AUTO 13007KT 9999 FEW046 SCT066 BKN150 03/01 Q1002 NOSIG
  • 132300Z AUTO 13005KT CAVOK 02/01 Q1003 NOSIG
  • 132230Z AUTO 12008KT CAVOK 02/00 Q1004 BECMG 18010KT
  • 132200Z AUTO 13006KT 9999 FEW043 BKN180 02/01 Q1005 NOSIG

TAF TAF LFCR
Valide du 14 à 00h jusqu'au 15 à 00h UTC


132300Z 1400/1424 13006KT 9999 BKN045
BECMG 1400/1402 18010KT BKN020
BECMG 1402/1404 4500 -RA OVC006
PROB40
TEMPO 1404/1410 2000 RA BKN002
BECMG 1410/1412 VRB02KT 8000 NSW BKN010
TEMPO 1412/1416 4000 -SHRA



MET'MAP, la Météo Aéronautique d'un coup d'oeil ! - Copyright ORBIFLY Décembre 2007 - Disclaimer

ORBIFLY MET'MAP TEAM :

Programmation & Développement : Alexandra Zaïnal
Conception & Développement : Baudouin d'Aumeries
Co-Programmation & Développement : Marc-Olivier Méhu
Soutien technique & logistique : Manuel Goepfert

Contact : metmap@orbifly.com




SOURCES & CREDITS :

   NOAA